sensor_id;sensor_type;location;lat;lon;timestamp;pressure;altitude;pressure_sealevel;temperature;humidity
18755;BME280;35061;47.664;9.166;2022-07-21T00:01:52;102041.38;;;21.30;82.30
18755;BME280;35061;47.664;9.166;2022-07-21T00:04:20;102049.39;;;21.24;82.50
18755;BME280;35061;47.664;9.166;2022-07-21T00:06:49;102040.40;;;21.22;82.76
18755;BME280;35061;47.664;9.166;2022-07-21T00:09:17;102046.45;;;21.30;82.64
18755;BME280;35061;47.664;9.166;2022-07-21T00:11:45;102048.31;;;21.27;82.50
18755;BME280;35061;47.664;9.166;2022-07-21T00:14:13;102051.77;;;21.20;83.36
18755;BME280;35061;47.664;9.166;2022-07-21T00:16:41;102044.42;;;21.13;83.66
18755;BME280;35061;47.664;9.166;2022-07-21T00:19:10;102036.51;;;21.14;83.67
18755;BME280;35061;47.664;9.166;2022-07-21T00:21:38;102028.82;;;21.11;83.34
18755;BME280;35061;47.664;9.166;2022-07-21T00:24:06;102029.90;;;21.08;83.97
18755;BME280;35061;47.664;9.166;2022-07-21T00:26:34;102024.57;;;21.12;84.48
18755;BME280;35061;47.664;9.166;2022-07-21T00:29:02;102017.15;;;21.16;84.33
18755;BME280;35061;47.664;9.166;2022-07-21T00:31:30;102008.64;;;21.18;84.01
18755;BME280;35061;47.664;9.166;2022-07-21T00:33:58;102007.37;;;21.14;83.92
18755;BME280;35061;47.664;9.166;2022-07-21T00:36:26;102012.90;;;21.17;83.76
18755;BME280;35061;47.664;9.166;2022-07-21T00:38:54;102014.27;;;21.11;84.25
18755;BME280;35061;47.664;9.166;2022-07-21T00:41:22;102021.92;;;21.14;84.21
18755;BME280;35061;47.664;9.166;2022-07-21T00:43:50;102041.25;;;21.17;84.29
18755;BME280;35061;47.664;9.166;2022-07-21T00:46:20;102048.96;;;21.09;83.98
18755;BME280;35061;47.664;9.166;2022-07-21T00:48:48;102053.21;;;21.08;84.43
18755;BME280;35061;47.664;9.166;2022-07-21T00:51:17;102053.97;;;21.08;84.30
18755;BME280;35061;47.664;9.166;2022-07-21T00:53:45;102045.53;;;21.10;83.98
18755;BME280;35061;47.664;9.166;2022-07-21T00:56:12;102051.61;;;21.07;84.15
18755;BME280;35061;47.664;9.166;2022-07-21T00:58:40;102051.88;;;21.09;83.65
18755;BME280;35061;47.664;9.166;2022-07-21T01:01:08;102040.73;;;21.13;83.60
18755;BME280;35061;47.664;9.166;2022-07-21T01:03:36;102034.41;;;21.09;83.77
18755;BME280;35061;47.664;9.166;2022-07-21T01:06:05;102046.58;;;21.07;83.58
18755;BME280;35061;47.664;9.166;2022-07-21T01:08:32;102033.10;;;21.04;83.32
18755;BME280;35061;47.664;9.166;2022-07-21T01:11:00;102042.13;;;21.00;83.31
18755;BME280;35061;47.664;9.166;2022-07-21T01:13:28;102028.40;;;20.95;83.36
18755;BME280;35061;47.664;9.166;2022-07-21T01:15:56;102024.96;;;20.91;83.40
18755;BME280;35061;47.664;9.166;2022-07-21T01:18:25;102026.83;;;20.94;83.90
18755;BME280;35061;47.664;9.166;2022-07-21T01:20:54;102031.86;;;20.94;84.48
18755;BME280;35061;47.664;9.166;2022-07-21T01:23:22;102037.39;;;20.97;83.87
18755;BME280;35061;47.664;9.166;2022-07-21T01:25:51;102035.52;;;21.00;83.62
18755;BME280;35061;47.664;9.166;2022-07-21T01:28:18;102031.30;;;20.95;84.00
18755;BME280;35061;47.664;9.166;2022-07-21T01:30:46;102030.20;;;21.04;83.70
18755;BME280;35061;47.664;9.166;2022-07-21T01:33:14;102025.45;;;21.01;83.26
18755;BME280;35061;47.664;9.166;2022-07-21T01:35:42;102026.04;;;20.94;83.13
18755;BME280;35061;47.664;9.166;2022-07-21T01:38:10;102029.48;;;20.92;83.11
18755;BME280;35061;47.664;9.166;2022-07-21T01:43:45;102030.48;;;21.00;83.16
18755;BME280;35061;47.664;9.166;2022-07-21T01:46:13;102037.16;;;20.95;83.07
18755;BME280;35061;47.664;9.166;2022-07-21T01:48:44;102036.90;;;20.93;83.46
18755;BME280;35061;47.664;9.166;2022-07-21T01:51:13;102038.47;;;20.94;83.54
18755;BME280;35061;47.664;9.166;2022-07-21T01:53:40;102037.20;;;20.89;83.62
18755;BME280;35061;47.664;9.166;2022-07-21T01:56:08;102033.17;;;20.92;83.32
18755;BME280;35061;47.664;9.166;2022-07-21T01:58:36;102033.73;;;20.91;83.29
18755;BME280;35061;47.664;9.166;2022-07-21T02:01:04;102028.66;;;20.97;83.15
18755;BME280;35061;47.664;9.166;2022-07-21T02:03:32;102029.48;;;20.92;83.17
18755;BME280;35061;47.664;9.166;2022-07-21T02:06:04;102033.73;;;20.91;82.99
18755;BME280;35061;47.664;9.166;2022-07-21T02:08:32;102019.44;;;20.93;82.91
18755;BME280;35061;47.664;9.166;2022-07-21T02:11:00;102025.26;;;20.93;82.88
18755;BME280;35061;47.664;9.166;2022-07-21T02:13:27;102027.38;;;20.87;82.50
18755;BME280;35061;47.664;9.166;2022-07-21T02:15:55;102024.24;;;20.85;82.56
18755;BME280;35061;47.664;9.166;2022-07-21T02:18:23;102022.12;;;20.85;82.56
18755;BME280;35061;47.664;9.166;2022-07-21T02:20:51;102033.20;;;20.87;82.70
18755;BME280;35061;47.664;9.166;2022-07-21T02:23:20;102027.88;;;20.91;82.43
18755;BME280;35061;47.664;9.166;2022-07-21T02:25:49;102030.81;;;20.91;82.42
18755;BME280;35061;47.664;9.166;2022-07-21T02:28:17;102032.12;;;20.90;82.09
18755;BME280;35061;47.664;9.166;2022-07-21T02:30:45;102038.23;;;20.86;81.74
18755;BME280;35061;47.664;9.166;2022-07-21T02:33:13;102036.93;;;20.87;81.70
18755;BME280;35061;47.664;9.166;2022-07-21T02:35:41;102039.05;;;20.81;82.07
18755;BME280;35061;47.664;9.166;2022-07-21T02:38:10;102042.23;;;20.83;82.25
18755;BME280;35061;47.664;9.166;2022-07-21T02:40:38;102055.41;;;20.90;81.93
18755;BME280;35061;47.664;9.166;2022-07-21T02:43:06;102049.59;;;20.90;81.93
18755;BME280;35061;47.664;9.166;2022-07-21T02:45:34;102050.89;;;20.95;81.66
18755;BME280;35061;47.664;9.166;2022-07-21T02:48:06;102053.02;;;20.94;81.73
18755;BME280;35061;47.664;9.166;2022-07-21T02:50:36;102055.66;;;20.92;82.28
18755;BME280;35061;47.664;9.166;2022-07-21T02:53:09;102055.66;;;20.92;81.91
18755;BME280;35061;47.664;9.166;2022-07-21T02:55:38;102051.19;;;20.91;82.05
18755;BME280;35061;47.664;9.166;2022-07-21T02:58:17;102063.87;;;20.94;82.31
18755;BME280;35061;47.664;9.166;2022-07-21T03:00:52;102054.59;;;21.01;82.23
18755;BME280;35061;47.664;9.166;2022-07-21T03:03:22;102063.05;;;20.99;82.26
18755;BME280;35061;47.664;9.166;2022-07-21T03:05:50;102059.40;;;20.92;82.13
18755;BME280;35061;47.664;9.166;2022-07-21T03:08:19;102051.45;;;20.93;82.74
18755;BME280;35061;47.664;9.166;2022-07-21T03:10:48;102053.80;;;20.95;82.54
18755;BME280;35061;47.664;9.166;2022-07-21T03:13:16;102049.32;;;20.94;82.40
18755;BME280;35061;47.664;9.166;2022-07-21T03:15:44;102056.48;;;20.92;82.41
18755;BME280;35061;47.664;9.166;2022-07-21T03:18:11;102047.95;;;21.00;82.14
18755;BME280;35061;47.664;9.166;2022-07-21T03:20:43;102051.41;;;20.99;82.39
18755;BME280;35061;47.664;9.166;2022-07-21T03:23:12;102040.30;;;20.97;82.30
18755;BME280;35061;47.664;9.166;2022-07-21T03:25:40;102048.48;;;21.04;81.86
18755;BME280;35061;47.664;9.166;2022-07-21T03:28:07;102040.76;;;21.07;81.55
18755;BME280;35061;47.664;9.166;2022-07-21T03:30:35;102033.63;;;21.02;81.56
18755;BME280;35061;47.664;9.166;2022-07-21T03:33:03;102041.38;;;20.94;81.83
18755;BME280;35061;47.664;9.166;2022-07-21T03:35:31;102041.12;;;20.92;82.00
18755;BME280;35061;47.664;9.166;2022-07-21T03:38:00;102043.27;;;20.86;81.89
18755;BME280;35061;47.664;9.166;2022-07-21T03:40:30;102046.71;;;20.84;81.79
18755;BME280;35061;47.664;9.166;2022-07-21T03:43:00;102051.22;;;20.80;82.28
18755;BME280;35061;47.664;9.166;2022-07-21T03:45:29;102062.86;;;20.85;81.82
18755;BME280;35061;47.664;9.166;2022-07-21T03:47:58;102054.39;;;20.82;81.82
18755;BME280;35061;47.664;9.166;2022-07-21T03:50:28;102053.61;;;20.81;82.00
18755;BME280;35061;47.664;9.166;2022-07-21T03:52:56;102062.86;;;20.85;81.98
18755;BME280;35061;47.664;9.166;2022-07-21T03:55:24;102064.43;;;20.81;81.60
18755;BME280;35061;47.664;9.166;2022-07-21T03:58:00;102068.65;;;20.91;81.25
18755;BME280;35061;47.664;9.166;2022-07-21T04:00:38;102069.92;;;20.96;80.91
18755;BME280;35061;47.664;9.166;2022-07-21T04:03:07;102076.82;;;20.98;80.95
18755;BME280;35061;47.664;9.166;2022-07-21T04:05:37;102074.99;;;20.95;80.74
18755;BME280;35061;47.664;9.166;2022-07-21T04:08:06;102079.96;;;21.00;80.75
18755;BME280;35061;47.664;9.166;2022-07-21T04:10:35;102081.83;;;21.03;80.36
18755;BME280;35061;47.664;9.166;2022-07-21T04:13:06;102079.96;;;21.00;80.52
18755;BME280;35061;47.664;9.166;2022-07-21T04:18:02;102077.12;;;20.89;80.77
18755;BME280;35061;47.664;9.166;2022-07-21T04:20:31;102079.54;;;20.85;81.00
18755;BME280;35061;47.664;9.166;2022-07-21T04:22:59;102076.37;;;20.83;81.03
18755;BME280;35061;47.664;9.166;2022-07-21T04:25:26;102080.03;;;20.89;81.56
18755;BME280;35061;47.664;9.166;2022-07-21T04:27:57;102077.94;;;20.89;81.24
18755;BME280;35061;47.664;9.166;2022-07-21T04:30:24;102075.02;;;20.89;81.06
18755;BME280;35061;47.664;9.166;2022-07-21T04:32:52;102074.50;;;20.85;81.11
18755;BME280;35061;47.664;9.166;2022-07-21T04:35:20;102075.05;;;20.84;81.16
18755;BME280;35061;47.664;9.166;2022-07-21T04:37:48;102078.98;;;20.81;81.24
18755;BME280;35061;47.664;9.166;2022-07-21T04:40:16;102078.49;;;20.82;81.25
18755;BME280;35061;47.664;9.166;2022-07-21T04:42:44;102085.36;;;20.79;81.38
18755;BME280;35061;47.664;9.166;2022-07-21T04:45:14;102084.84;;;20.75;81.34
18755;BME280;35061;47.664;9.166;2022-07-21T04:50:15;102085.88;;;20.77;81.71
18755;BME280;35061;47.664;9.166;2022-07-21T04:52:44;102095.95;;;20.76;81.56
18755;BME280;35061;47.664;9.166;2022-07-21T04:55:13;102097.26;;;20.87;81.84
18755;BME280;35061;47.664;9.166;2022-07-21T04:57:44;102103.87;;;20.87;81.58
18755;BME280;35061;47.664;9.166;2022-07-21T05:00:15;102096.74;;;20.88;81.63
18755;BME280;35061;47.664;9.166;2022-07-21T05:02:44;102095.37;;;20.95;81.37
18755;BME280;35061;47.664;9.166;2022-07-21T05:05:12;102095.37;;;20.95;81.10
18755;BME280;35061;47.664;9.166;2022-07-21T05:07:40;102107.27;;;20.97;81.04
18755;BME280;35061;47.664;9.166;2022-07-21T05:10:11;102110.41;;;20.99;80.96
18755;BME280;35061;47.664;9.166;2022-07-21T05:12:39;102109.66;;;20.99;80.67
18755;BME280;35061;47.664;9.166;2022-07-21T05:15:08;102113.58;;;21.01;80.72
18755;BME280;35061;47.664;9.166;2022-07-21T05:17:40;102109.10;;;21.00;80.86
18755;BME280;35061;47.664;9.166;2022-07-21T05:20:09;102109.06;;;21.06;80.60
18755;BME280;35061;47.664;9.166;2022-07-21T05:22:38;102114.59;;;21.10;80.42
18755;BME280;35061;47.664;9.166;2022-07-21T05:25:07;102113.02;;;21.09;80.37
18755;BME280;35061;47.664;9.166;2022-07-21T05:27:35;102115.67;;;21.07;80.22
18755;BME280;35061;47.664;9.166;2022-07-21T05:30:04;102106.19;;;21.00;80.24
18755;BME280;35061;47.664;9.166;2022-07-21T05:32:32;102107.46;;;21.05;80.32
18755;BME280;35061;47.664;9.166;2022-07-21T05:35:00;102108.51;;;21.08;80.14
18755;BME280;35061;47.664;9.166;2022-07-21T05:37:27;102109.06;;;21.06;80.20
18755;BME280;35061;47.664;9.166;2022-07-21T05:39:55;102112.73;;;21.12;80.10
18755;BME280;35061;47.664;9.166;2022-07-21T05:42:24;102114.59;;;21.10;80.06
18755;BME280;35061;47.664;9.166;2022-07-21T05:44:51;102122.24;;;21.13;80.11
18755;BME280;35061;47.664;9.166;2022-07-21T05:47:19;102117.77;;;21.12;80.03
18755;BME280;35061;47.664;9.166;2022-07-21T05:49:47;102118.29;;;21.16;79.94
18755;BME280;35061;47.664;9.166;2022-07-21T05:52:14;102127.80;;;21.16;79.92
18755;BME280;35061;47.664;9.166;2022-07-21T05:54:44;102139.97;;;21.21;79.93
18755;BME280;35061;47.664;9.166;2022-07-21T05:57:12;102139.97;;;21.21;79.91
18755;BME280;35061;47.664;9.166;2022-07-21T05:59:39;102141.31;;;21.19;79.88
18755;BME280;35061;47.664;9.166;2022-07-21T06:02:07;102142.32;;;21.22;79.72
18755;BME280;35061;47.664;9.166;2022-07-21T06:04:35;102145.79;;;21.21;79.58
18755;BME280;35061;47.664;9.166;2022-07-21T06:07:03;102138.89;;;21.24;79.41
18755;BME280;35061;47.664;9.166;2022-07-21T06:09:31;102144.94;;;21.26;79.06
18755;BME280;35061;47.664;9.166;2022-07-21T06:11:58;102150.76;;;21.26;78.68
18755;BME280;35061;47.664;9.166;2022-07-21T06:14:27;102147.33;;;21.27;78.41
18755;BME280;35061;47.664;9.166;2022-07-21T06:16:54;102148.37;;;21.30;78.23
18755;BME280;35061;47.664;9.166;2022-07-21T06:19:22;102147.33;;;21.27;78.10
18755;BME280;35061;47.664;9.166;2022-07-21T06:21:57;102146.54;;;21.27;78.06
18755;BME280;35061;47.664;9.166;2022-07-21T06:24:26;102146.28;;;21.25;78.54
18755;BME280;35061;47.664;9.166;2022-07-21T06:26:54;102152.10;;;21.25;78.43
18755;BME280;35061;47.664;9.166;2022-07-21T06:29:31;102147.33;;;21.27;78.62
18755;BME280;35061;47.664;9.166;2022-07-21T06:31:59;102159.75;;;21.28;78.74
18755;BME280;35061;47.664;9.166;2022-07-21T06:34:27;102155.80;;;21.31;78.79
18755;BME280;35061;47.664;9.166;2022-07-21T06:36:54;102159.49;;;21.31;78.60
18755;BME280;35061;47.664;9.166;2022-07-21T06:39:22;102164.27;;;21.29;78.35
18755;BME280;35061;47.664;9.166;2022-07-21T06:41:50;102165.31;;;21.31;78.55
18755;BME280;35061;47.664;9.166;2022-07-21T06:44:18;102162.66;;;21.28;78.58
18755;BME280;35061;47.664;9.166;2022-07-21T06:46:45;102163.48;;;21.28;78.47
18755;BME280;35061;47.664;9.166;2022-07-21T06:49:13;102166.39;;;21.28;78.52
18755;BME280;35061;47.664;9.166;2022-07-21T06:51:41;102169.79;;;21.32;78.63
18755;BME280;35061;47.664;9.166;2022-07-21T06:54:09;102172.70;;;21.32;78.56
18755;BME280;35061;47.664;9.166;2022-07-21T06:56:36;102172.47;;;21.30;78.57
18755;BME280;35061;47.664;9.166;2022-07-21T06:59:04;102170.84;;;21.35;78.62
18755;BME280;35061;47.664;9.166;2022-07-21T07:01:32;102175.55;;;21.44;78.50
18755;BME280;35061;47.664;9.166;2022-07-21T07:04:01;102186.11;;;21.53;78.39
18755;BME280;35061;47.664;9.166;2022-07-21T07:06:31;102183.16;;;21.58;77.70
18755;BME280;35061;47.664;9.166;2022-07-21T07:08:58;102177.34;;;21.58;76.96
18755;BME280;35061;47.664;9.166;2022-07-21T07:11:27;102178.62;;;21.63;76.82
18755;BME280;35061;47.664;9.166;2022-07-21T07:13:54;102178.06;;;21.70;76.95
18755;BME280;35061;47.664;9.166;2022-07-21T07:16:37;102181.73;;;21.77;76.26
18755;BME280;35061;47.664;9.166;2022-07-21T07:19:05;102183.03;;;21.81;75.82
18755;BME280;35061;47.664;9.166;2022-07-21T07:21:32;102177.15;;;21.87;75.85
18755;BME280;35061;47.664;9.166;2022-07-21T07:24:00;102183.46;;;21.91;75.27
18755;BME280;35061;47.664;9.166;2022-07-21T07:26:29;102180.78;;;21.93;74.13
18755;BME280;35061;47.664;9.166;2022-07-21T07:28:57;102186.04;;;22.00;74.88
18755;BME280;35061;47.664;9.166;2022-07-21T07:31:24;102190.26;;;22.05;74.79
18755;BME280;35061;47.664;9.166;2022-07-21T07:33:52;102186.24;;;22.08;74.21
18755;BME280;35061;47.664;9.166;2022-07-21T07:36:21;102182.55;;;22.08;73.91
18755;BME280;35061;47.664;9.166;2022-07-21T07:38:48;102192.35;;;22.10;73.61
18755;BME280;35061;47.664;9.166;2022-07-21T07:41:17;102189.41;;;22.10;72.93
18755;BME280;35061;47.664;9.166;2022-07-21T07:43:45;102192.29;;;22.16;73.16
18755;BME280;35061;47.664;9.166;2022-07-21T07:46:14;102192.29;;;22.16;72.04
18755;BME280;35061;47.664;9.166;2022-07-21T07:48:42;102193.86;;;22.17;72.29
18755;BME280;35061;47.664;9.166;2022-07-21T07:51:11;102202.33;;;22.21;72.51
18755;BME280;35061;47.664;9.166;2022-07-21T07:53:40;102190.88;;;22.23;71.45
18755;BME280;35061;47.664;9.166;2022-07-21T07:56:08;102186.89;;;22.26;71.68
18755;BME280;35061;47.664;9.166;2022-07-21T07:58:36;102178.88;;;22.32;71.47
18755;BME280;35061;47.664;9.166;2022-07-21T08:01:04;102177.48;;;22.39;71.07
18755;BME280;35061;47.664;9.166;2022-07-21T08:03:34;102175.84;;;22.43;70.62
18755;BME280;35061;47.664;9.166;2022-07-21T08:06:02;102172.93;;;22.43;67.37
18755;BME280;35061;47.664;9.166;2022-07-21T08:08:31;102162.83;;;22.44;67.34
18755;BME280;35061;47.664;9.166;2022-07-21T08:10:59;102172.08;;;22.49;65.98
18755;BME280;35061;47.664;9.166;2022-07-21T08:13:27;102163.88;;;22.47;61.25
18755;BME280;35061;47.664;9.166;2022-07-21T08:15:55;102170.22;;;22.51;62.12
18755;BME280;35061;47.664;9.166;2022-07-21T08:18:23;102168.09;;;22.52;61.49
18755;BME280;35061;47.664;9.166;2022-07-21T08:20:51;102169.92;;;22.55;61.63
18755;BME280;35061;47.664;9.166;2022-07-21T08:23:19;102174.70;;;22.52;59.18
18755;BME280;35061;47.664;9.166;2022-07-21T08:25:46;102168.65;;;22.50;60.24
18755;BME280;35061;47.664;9.166;2022-07-21T08:28:15;102167.30;;;22.51;60.47
18755;BME280;35061;47.664;9.166;2022-07-21T08:30:43;102167.01;;;22.55;58.98
18755;BME280;35061;47.664;9.166;2022-07-21T08:33:10;102169.04;;;22.60;59.67
18755;BME280;35061;47.664;9.166;2022-07-21T08:35:38;102179.37;;;22.61;60.13
18755;BME280;35061;47.664;9.166;2022-07-21T08:38:08;102176.73;;;22.63;60.50
18755;BME280;35061;47.664;9.166;2022-07-21T08:40:38;102179.30;;;22.67;59.95
18755;BME280;35061;47.664;9.166;2022-07-21T08:43:07;102175.61;;;22.66;60.28
18755;BME280;35061;47.664;9.166;2022-07-21T08:45:37;102176.59;;;22.75;60.93
18755;BME280;35061;47.664;9.166;2022-07-21T08:48:06;102180.22;;;22.81;60.87
18755;BME280;35061;47.664;9.166;2022-07-21T08:50:36;102177.80;;;22.85;61.22
18755;BME280;35061;47.664;9.166;2022-07-21T08:53:05;102177.15;;;22.92;61.81
18755;BME280;35061;47.664;9.166;2022-07-21T08:55:36;102180.52;;;23.02;61.98
18755;BME280;35061;47.664;9.166;2022-07-21T08:58:07;102179.53;;;23.13;62.05
18755;BME280;35061;47.664;9.166;2022-07-21T09:00:37;102175.71;;;23.24;61.52
18755;BME280;35061;47.664;9.166;2022-07-21T09:03:22;102174.86;;;23.29;61.79
18755;BME280;35061;47.664;9.166;2022-07-21T09:08:35;102179.44;;;23.44;62.12
18755;BME280;35061;47.664;9.166;2022-07-21T09:13:36;102179.27;;;23.55;62.11
18755;BME280;35061;47.664;9.166;2022-07-21T09:16:04;102181.63;;;23.56;62.24
18755;BME280;35061;47.664;9.166;2022-07-21T09:18:32;102178.16;;;23.58;62.29
18755;BME280;35061;47.664;9.166;2022-07-21T09:21:00;102179.73;;;23.59;62.24
18755;BME280;35061;47.664;9.166;2022-07-21T09:23:29;102170.18;;;23.59;62.16
18755;BME280;35061;47.664;9.166;2022-07-21T09:25:57;102185.03;;;23.61;62.18
18755;BME280;35061;47.664;9.166;2022-07-21T09:28:29;102180.22;;;23.63;62.58
18755;BME280;35061;47.664;9.166;2022-07-21T09:36:14;102174.50;;;23.71;62.44
18755;BME280;35061;47.664;9.166;2022-07-21T09:38:44;102173.84;;;23.78;62.27
18755;BME280;35061;47.664;9.166;2022-07-21T09:41:22;102163.38;;;23.83;61.21
18755;BME280;35061;47.664;9.166;2022-07-21T09:43:52;102165.15;;;23.92;61.19
18755;BME280;35061;47.664;9.166;2022-07-21T09:46:26;102167.86;;;24.03;60.47
18755;BME280;35061;47.664;9.166;2022-07-21T09:48:59;102165.64;;;24.09;59.14
18755;BME280;35061;47.664;9.166;2022-07-21T09:51:49;102166.33;;;24.16;59.24
18755;BME280;35061;47.664;9.166;2022-07-21T09:54:16;102159.26;;;24.24;58.78
18755;BME280;35061;47.664;9.166;2022-07-21T09:56:45;102157.13;;;24.25;57.60
18755;BME280;35061;47.664;9.166;2022-07-21T09:59:14;102159.13;;;24.17;57.53
18755;BME280;35061;47.664;9.166;2022-07-21T10:01:42;102154.00;;;24.23;58.13
18755;BME280;35061;47.664;9.166;2022-07-21T10:04:12;102151.51;;;24.27;57.15
18755;BME280;35061;47.664;9.166;2022-07-21T10:06:40;102151.71;;;24.29;56.85
18755;BME280;35061;47.664;9.166;2022-07-21T10:09:10;102152.63;;;24.37;56.41
18755;BME280;35061;47.664;9.166;2022-07-21T10:11:41;102151.19;;;24.44;56.50
18755;BME280;35061;47.664;9.166;2022-07-21T10:14:13;102146.57;;;24.49;55.87
18755;BME280;35061;47.664;9.166;2022-07-21T10:16:40;102154.68;;;24.56;56.02
18755;BME280;35061;47.664;9.166;2022-07-21T10:19:28;102146.80;;;24.64;56.38
18755;BME280;35061;47.664;9.166;2022-07-21T10:24:48;102142.75;;;24.81;55.78
18755;BME280;35061;47.664;9.166;2022-07-21T10:27:16;102143.30;;;24.93;56.24
18755;BME280;35061;47.664;9.166;2022-07-21T10:32:16;102147.03;;;24.80;55.00
18755;BME280;35061;47.664;9.166;2022-07-21T10:34:45;102145.46;;;24.79;55.58
18755;BME280;35061;47.664;9.166;2022-07-21T10:42:40;102140.03;;;24.97;55.48
18755;BME280;35061;47.664;9.166;2022-07-21T10:45:32;102136.41;;;25.04;56.04
18755;BME280;35061;47.664;9.166;2022-07-21T10:48:01;102132.91;;;25.05;55.09
18755;BME280;35061;47.664;9.166;2022-07-21T10:50:39;102137.62;;;25.08;55.21
18755;BME280;35061;47.664;9.166;2022-07-21T10:53:18;102138.86;;;25.13;55.29
18755;BME280;35061;47.664;9.166;2022-07-21T10:55:48;102137.38;;;25.20;55.09
18755;BME280;35061;47.664;9.166;2022-07-21T10:58:29;102129.60;;;25.22;55.10
18755;BME280;35061;47.664;9.166;2022-07-21T11:01:32;102131.86;;;25.16;53.27
18755;BME280;35061;47.664;9.166;2022-07-21T11:04:10;102125.71;;;25.06;54.33
18755;BME280;35061;47.664;9.166;2022-07-21T11:06:40;102123.09;;;25.03;54.57
18755;BME280;35061;47.664;9.166;2022-07-21T11:11:59;102120.64;;;24.93;55.09
18755;BME280;35061;47.664;9.166;2022-07-21T11:14:54;102120.88;;;24.95;54.63
18755;BME280;35061;47.664;9.166;2022-07-21T11:17:28;102110.96;;;24.99;55.14
18755;BME280;35061;47.664;9.166;2022-07-21T11:19:57;102112.76;;;25.02;55.14
18755;BME280;35061;47.664;9.166;2022-07-21T11:22:27;102107.56;;;25.08;55.94
18755;BME280;35061;47.664;9.166;2022-07-21T11:25:04;102105.99;;;25.07;55.00
18755;BME280;35061;47.664;9.166;2022-07-21T11:27:34;102103.70;;;25.13;54.93
18755;BME280;35061;47.664;9.166;2022-07-21T11:30:05;102112.83;;;25.23;54.63
18755;BME280;35061;47.664;9.166;2022-07-21T11:32:34;102108.38;;;25.30;54.94
18755;BME280;35061;47.664;9.166;2022-07-21T11:35:04;102101.02;;;25.36;54.91
18755;BME280;35061;47.664;9.166;2022-07-21T11:37:33;102094.22;;;25.42;54.45
18755;BME280;35061;47.664;9.166;2022-07-21T11:40:06;102097.39;;;25.44;54.45
18755;BME280;35061;47.664;9.166;2022-07-21T11:42:35;102082.65;;;25.49;54.36
18755;BME280;35061;47.664;9.166;2022-07-21T11:45:04;102079.31;;;25.53;53.71
18755;BME280;35061;47.664;9.166;2022-07-21T11:47:33;102082.71;;;25.57;53.78
18755;BME280;35061;47.664;9.166;2022-07-21T11:50:04;102081.96;;;25.64;53.87
18755;BME280;35061;47.664;9.166;2022-07-21T11:52:34;102076.20;;;25.72;53.80
18755;BME280;35061;47.664;9.166;2022-07-21T11:55:06;102074.53;;;25.85;53.86
18755;BME280;35061;47.664;9.166;2022-07-21T11:57:35;102061.48;;;25.94;53.41
18755;BME280;35061;47.664;9.166;2022-07-21T12:00:04;102068.75;;;26.00;52.68
18755;BME280;35061;47.664;9.166;2022-07-21T12:02:35;102055.90;;;26.03;51.57
18755;BME280;35061;47.664;9.166;2022-07-21T12:05:06;102054.16;;;26.08;51.56
18755;BME280;35061;47.664;9.166;2022-07-21T12:07:43;102056.95;;;26.14;51.72
18755;BME280;35061;47.664;9.166;2022-07-21T12:10:26;102056.42;;;26.23;52.02
18755;BME280;35061;47.664;9.166;2022-07-21T12:13:05;102047.33;;;26.35;50.74
18755;BME280;35061;47.664;9.166;2022-07-21T12:15:35;102043.05;;;26.43;50.42
18755;BME280;35061;47.664;9.166;2022-07-21T12:18:08;102047.00;;;26.54;51.14
18755;BME280;35061;47.664;9.166;2022-07-21T12:20:38;102047.85;;;26.62;51.55
18755;BME280;35061;47.664;9.166;2022-07-21T12:23:27;102044.71;;;26.68;51.51
18755;BME280;35061;47.664;9.166;2022-07-21T12:25:58;102053.73;;;26.70;51.68
18755;BME280;35061;47.664;9.166;2022-07-21T12:28:47;102037.29;;;26.67;51.91
18755;BME280;35061;47.664;9.166;2022-07-21T12:31:18;102043.27;;;26.53;52.16
18755;BME280;35061;47.664;9.166;2022-07-21T12:33:51;102040.27;;;26.38;52.22
18755;BME280;35061;47.664;9.166;2022-07-21T12:36:41;102043.70;;;26.21;52.71
18755;BME280;35061;47.664;9.166;2022-07-21T12:39:20;102043.99;;;26.09;53.03
18755;BME280;35061;47.664;9.166;2022-07-21T12:42:09;102041.28;;;26.11;53.67
18755;BME280;35061;47.664;9.166;2022-07-21T12:44:38;102047.20;;;26.19;53.90
18755;BME280;35061;47.664;9.166;2022-07-21T12:47:18;102039.02;;;26.25;53.97
18755;BME280;35061;47.664;9.166;2022-07-21T12:50:03;102035.95;;;26.31;53.83
18755;BME280;35061;47.664;9.166;2022-07-21T12:52:41;102035.30;;;26.25;53.55
18755;BME280;35061;47.664;9.166;2022-07-21T12:55:09;102029.38;;;26.17;53.89
18755;BME280;35061;47.664;9.166;2022-07-21T12:57:36;102038.89;;;26.10;54.16
18755;BME280;35061;47.664;9.166;2022-07-21T13:00:05;102035.72;;;26.00;54.36
18755;BME280;35061;47.664;9.166;2022-07-21T13:02:45;102032.29;;;25.88;54.53
18755;BME280;35061;47.664;9.166;2022-07-21T13:05:14;102037.13;;;25.77;55.12
18755;BME280;35061;47.664;9.166;2022-07-21T13:07:42;102034.77;;;25.76;55.28
18755;BME280;35061;47.664;9.166;2022-07-21T13:10:10;102033.40;;;25.77;55.47
18755;BME280;35061;47.664;9.166;2022-07-21T13:12:38;102024.83;;;25.79;55.51
18755;BME280;35061;47.664;9.166;2022-07-21T13:15:06;102031.08;;;25.83;55.50
18755;BME280;35061;47.664;9.166;2022-07-21T13:17:34;102027.58;;;25.85;55.56
18755;BME280;35061;47.664;9.166;2022-07-21T13:20:02;102025.42;;;25.85;56.04
18755;BME280;35061;47.664;9.166;2022-07-21T13:22:33;102025.06;;;25.89;56.27
18755;BME280;35061;47.664;9.166;2022-07-21T13:25:02;102025.42;;;25.85;56.29
18755;BME280;35061;47.664;9.166;2022-07-21T13:27:30;102023.46;;;25.80;56.51
18755;BME280;35061;47.664;9.166;2022-07-21T13:29:57;102025.75;;;25.74;56.83
18755;BME280;35061;47.664;9.166;2022-07-21T13:32:25;102016.36;;;25.75;56.97
18755;BME280;35061;47.664;9.166;2022-07-21T13:34:53;102017.57;;;25.80;57.08
18755;BME280;35061;47.664;9.166;2022-07-21T13:37:41;102016.79;;;25.80;57.17